createdAt,value
2023-02-24T00:04:00.885Z,4.90
2023-02-24T00:06:36.083Z,5.67
2023-02-24T00:09:08.706Z,4.93
2023-02-24T00:11:37.446Z,5.37
2023-02-24T00:14:06.797Z,5.40
2023-02-24T00:16:35.710Z,5.57
2023-02-24T00:19:07.516Z,5.53
2023-02-24T00:21:36.622Z,5.63
2023-02-24T00:27:45.841Z,5.20
2023-02-24T00:30:14.797Z,5.37
2023-02-24T00:32:42.950Z,5.70
2023-02-24T00:35:13.112Z,5.07
2023-02-24T00:37:41.242Z,4.93
2023-02-24T00:40:12.228Z,5.43
2023-02-24T00:42:42.802Z,6.40
2023-02-24T00:45:11.429Z,4.90
2023-02-24T00:47:40.205Z,5.40
2023-02-24T00:50:09.206Z,5.60
2023-02-24T00:52:38.686Z,5.77
2023-02-24T00:55:14.780Z,5.70
2023-02-24T00:57:43.106Z,5.30
2023-02-24T01:00:16.917Z,5.80
2023-02-24T01:02:47.263Z,5.83
2023-02-24T01:05:15.950Z,5.77
2023-02-24T01:07:45.518Z,5.27
2023-02-24T01:10:18.371Z,4.93
2023-02-24T01:12:54.198Z,5.47
2023-02-24T01:15:24.081Z,5.93
2023-02-24T01:17:52.392Z,6.00
2023-02-24T01:20:21.016Z,5.33
2023-02-24T01:22:53.626Z,5.57
2023-02-24T01:25:22.589Z,5.37
2023-02-24T01:27:50.721Z,5.47
2023-02-24T01:30:19.010Z,4.80
2023-02-24T01:32:48.654Z,5.37
2023-02-24T01:35:18.006Z,5.57
2023-02-24T01:37:46.493Z,4.53
2023-02-24T01:40:19.031Z,5.33
2023-02-24T01:42:50.437Z,4.33
2023-02-24T01:45:23.038Z,4.30
2023-02-24T01:47:52.862Z,4.67
2023-02-24T01:50:26.225Z,5.17
2023-02-24T01:52:58.824Z,4.43
2023-02-24T01:55:33.255Z,4.57
2023-02-24T01:58:05.953Z,4.17
2023-02-24T02:00:38.567Z,4.30
2023-02-24T02:03:18.917Z,3.87
2023-02-24T02:05:48.810Z,3.60
2023-02-24T02:08:18.633Z,4.20
2023-02-24T02:10:49.025Z,3.57
2023-02-24T02:13:21.455Z,3.40
2023-02-24T02:15:59.022Z,3.97
2023-02-24T02:18:36.663Z,3.57
2023-02-24T02:21:29.374Z,3.10
2023-02-24T02:24:37.045Z,4.03
2023-02-24T02:27:31.668Z,3.80
2023-02-24T02:30:26.466Z,3.53
2023-02-24T02:33:46.843Z,3.27
2023-02-24T02:36:23.660Z,4.17
2023-02-24T02:39:05.925Z,3.53
2023-02-24T02:41:40.012Z,3.70
2023-02-24T02:44:12.686Z,3.57
2023-02-24T02:46:48.765Z,4.07
2023-02-24T02:49:21.034Z,3.77
2023-02-24T02:51:53.792Z,3.97
2023-02-24T02:54:32.548Z,3.47
2023-02-24T02:57:08.009Z,4.13
2023-02-24T02:59:41.933Z,4.33
2023-02-24T03:02:15.143Z,4.07
2023-02-24T03:04:46.713Z,3.37
2023-02-24T03:07:18.551Z,3.57
2023-02-24T03:09:52.219Z,3.93
2023-02-24T03:12:23.679Z,3.90
2023-02-24T03:14:59.276Z,3.23
2023-02-24T03:17:30.677Z,4.23
2023-02-24T03:20:15.538Z,3.70
2023-02-24T03:22:50.321Z,4.07
2023-02-24T03:25:24.305Z,3.80
2023-02-24T03:27:55.730Z,4.23
2023-02-24T03:30:28.036Z,3.23
2023-02-24T03:36:37.988Z,3.63
2023-02-24T03:39:11.443Z,4.13
2023-02-24T03:41:45.729Z,3.20
2023-02-24T03:44:14.877Z,3.97
2023-02-24T03:50:31.998Z,4.00
2023-02-24T03:53:09.081Z,3.73
2023-02-24T03:55:55.174Z,3.30
2023-02-24T03:58:33.584Z,3.50
2023-02-24T04:01:10.950Z,3.33
2023-02-24T04:03:46.463Z,3.60
2023-02-24T04:06:23.651Z,3.70
2023-02-24T04:08:55.085Z,3.93
2023-02-24T04:11:29.797Z,3.53
2023-02-24T04:14:06.614Z,3.47
2023-02-24T04:16:40.251Z,3.47
2023-02-24T04:19:15.184Z,3.50
2023-02-24T04:21:48.624Z,3.57
2023-02-24T04:24:19.135Z,3.43
2023-02-24T04:26:50.616Z,3.03
2023-02-24T04:29:23.060Z,3.20
2023-02-24T04:31:54.760Z,2.90
2023-02-24T04:34:22.938Z,3.57
2023-02-24T04:36:51.595Z,3.60
2023-02-24T04:39:21.390Z,3.47
2023-02-24T04:41:51.307Z,3.90
2023-02-24T04:44:22.075Z,3.07
2023-02-24T04:46:51.646Z,3.20
2023-02-24T04:49:23.071Z,3.83
2023-02-24T04:51:51.651Z,3.00
2023-02-24T04:54:21.604Z,3.47
2023-02-24T04:56:52.491Z,3.33
2023-02-24T04:59:21.692Z,3.30
2023-02-24T05:01:52.741Z,3.53
2023-02-24T05:04:20.888Z,3.40
2023-02-24T05:06:49.300Z,3.27
2023-02-24T05:09:19.657Z,2.83
2023-02-24T05:11:52.484Z,2.83
2023-02-24T05:14:23.126Z,3.50
2023-02-24T05:16:52.097Z,3.30
2023-02-24T05:19:39.387Z,3.90
2023-02-24T05:22:09.884Z,3.30
2023-02-24T05:24:38.654Z,4.07
2023-02-24T05:27:08.651Z,4.10
2023-02-24T05:29:38.320Z,3.40
2023-02-24T05:32:08.204Z,3.60
2023-02-24T05:34:39.722Z,4.13
2023-02-24T05:37:10.730Z,6.63
2023-02-24T05:39:39.172Z,5.93
2023-02-24T05:42:09.160Z,5.67
2023-02-24T05:44:37.218Z,5.93
2023-02-24T05:47:05.848Z,5.57
2023-02-24T05:49:36.074Z,5.43
2023-02-24T05:52:08.004Z,4.93
2023-02-24T05:54:38.949Z,12.60
2023-02-24T05:57:11.928Z,11.00
2023-02-24T05:59:41.163Z,6.33
2023-02-24T06:02:11.099Z,5.67
2023-02-24T06:04:46.016Z,4.10
2023-02-24T06:07:19.588Z,4.63
2023-02-24T06:09:50.348Z,4.53
2023-02-24T06:12:21.051Z,5.60
2023-02-24T06:14:49.453Z,4.83
2023-02-24T06:17:18.808Z,4.87
2023-02-24T06:19:50.509Z,4.03
2023-02-24T06:22:21.608Z,4.00
2023-02-24T06:24:50.270Z,4.07
2023-02-24T06:27:21.728Z,4.23
2023-02-24T06:29:52.550Z,4.03
2023-02-24T06:32:22.095Z,4.33
2023-02-24T06:34:52.074Z,4.10
2023-02-24T06:37:20.659Z,4.10
2023-02-24T06:39:49.138Z,4.70
2023-02-24T06:42:19.032Z,4.50
2023-02-24T06:44:49.223Z,4.17
2023-02-24T06:47:18.030Z,4.40
2023-02-24T06:49:46.235Z,4.20
2023-02-24T06:52:18.922Z,4.70
2023-02-24T06:54:49.317Z,4.70
2023-02-24T06:57:17.719Z,4.60
2023-02-24T06:59:49.137Z,4.90
2023-02-24T07:02:18.132Z,4.50
2023-02-24T07:04:46.336Z,5.10
2023-02-24T07:11:01.830Z,4.17
2023-02-24T07:13:30.531Z,4.00
2023-02-24T07:16:07.162Z,4.23
2023-02-24T07:18:36.377Z,4.20
2023-02-24T07:21:11.704Z,3.80
2023-02-24T07:24:48.933Z,4.00
2023-02-24T07:27:23.471Z,3.93
2023-02-24T07:29:53.625Z,4.50
2023-02-24T07:32:25.650Z,4.83
2023-02-24T07:34:54.109Z,5.13
2023-02-24T07:37:24.484Z,6.00
2023-02-24T07:43:40.769Z,5.17
2023-02-24T07:50:00.522Z,4.70
2023-02-24T07:52:28.972Z,4.93
2023-02-24T07:54:57.071Z,5.00
2023-02-24T07:57:25.798Z,5.37
2023-02-24T07:59:54.247Z,4.47
2023-02-24T08:06:15.602Z,4.40
2023-02-24T08:08:58.969Z,4.43
2023-02-24T08:11:35.892Z,4.53
2023-02-24T08:14:08.538Z,4.30
2023-02-24T08:16:40.912Z,4.80
2023-02-24T08:19:13.142Z,4.70
2023-02-24T08:21:47.780Z,4.63
2023-02-24T08:24:18.551Z,4.50
2023-02-24T08:26:53.987Z,4.47
2023-02-24T08:29:22.073Z,3.77
2023-02-24T08:31:50.672Z,4.60
2023-02-24T08:34:19.236Z,4.10
2023-02-24T08:36:55.887Z,4.97
2023-02-24T08:39:30.804Z,3.90
2023-02-24T08:41:59.512Z,4.00
2023-02-24T08:44:28.148Z,4.10
2023-02-24T08:46:57.095Z,4.17
2023-02-24T08:49:25.896Z,4.00
2023-02-24T08:51:55.714Z,4.40
2023-02-24T08:54:27.628Z,3.30
2023-02-24T08:56:57.825Z,3.83
2023-02-24T08:59:37.895Z,3.30
2023-02-24T09:02:24.378Z,3.77
2023-02-24T09:04:57.286Z,2.60
2023-02-24T09:07:29.235Z,3.10
2023-02-24T09:09:58.714Z,3.43
2023-02-24T09:12:29.258Z,3.13
2023-02-24T09:15:01.733Z,3.80
2023-02-24T09:17:51.019Z,3.37
2023-02-24T09:20:38.796Z,3.17
2023-02-24T09:23:09.840Z,3.03
2023-02-24T09:25:45.130Z,3.63
2023-02-24T09:28:18.290Z,3.20
2023-02-24T09:30:57.390Z,3.10
2023-02-24T09:33:27.739Z,3.20
2023-02-24T09:36:14.029Z,3.10
2023-02-24T09:39:03.735Z,3.67
2023-02-24T09:41:53.785Z,3.17
2023-02-24T09:44:28.108Z,3.37
2023-02-24T09:47:09.398Z,3.10
2023-02-24T09:53:19.446Z,3.00
2023-02-24T09:59:36.355Z,3.50
2023-02-24T10:05:59.143Z,3.67
2023-02-24T10:08:38.273Z,3.60
2023-02-24T10:11:10.431Z,3.73
2023-02-24T10:13:43.969Z,3.13
2023-02-24T10:20:14.116Z,3.80
2023-02-24T10:23:15.632Z,3.30
2023-02-24T10:25:54.344Z,3.70
2023-02-24T10:32:24.262Z,4.17
2023-02-24T10:38:46.057Z,3.90
2023-02-24T10:45:19.816Z,3.63
2023-02-24T10:47:57.107Z,3.83
2023-02-24T10:50:27.715Z,3.70
2023-02-24T10:53:34.617Z,4.40
2023-02-24T10:56:26.907Z,4.07
2023-02-24T10:59:17.222Z,3.83
2023-02-24T11:01:55.163Z,4.17
2023-02-24T11:04:33.481Z,4.37
2023-02-24T11:07:10.494Z,3.83
2023-02-24T11:09:52.441Z,3.47
2023-02-24T11:12:41.676Z,4.30
2023-02-24T11:15:37.070Z,3.90
2023-02-24T11:18:08.971Z,4.63
2023-02-24T11:20:48.916Z,4.60
2023-02-24T11:23:21.486Z,4.23
2023-02-24T11:25:53.555Z,3.60
2023-02-24T11:28:44.757Z,4.23
2023-02-24T11:31:28.293Z,4.00
2023-02-24T11:34:04.372Z,3.90
2023-02-24T11:36:39.573Z,4.67
2023-02-24T11:39:31.278Z,4.13
2023-02-24T11:42:03.378Z,3.90
2023-02-24T11:44:37.439Z,4.10
2023-02-24T11:47:09.705Z,3.77
2023-02-24T11:49:42.399Z,4.00
2023-02-24T11:52:16.285Z,3.90
2023-02-24T11:54:49.011Z,4.10
2023-02-24T11:57:22.826Z,4.27
2023-02-24T12:00:04.610Z,4.10
2023-02-24T12:02:40.944Z,4.60
2023-02-24T12:05:14.366Z,4.07
2023-02-24T12:07:47.002Z,4.00
2023-02-24T12:10:22.153Z,5.93
2023-02-24T12:13:02.051Z,4.60
2023-02-24T12:15:40.354Z,4.30
2023-02-24T12:18:19.944Z,3.93
2023-02-24T12:20:52.008Z,4.30
2023-02-24T12:23:26.982Z,4.40
2023-02-24T12:26:09.110Z,5.20
2023-02-24T12:29:04.248Z,4.50
2023-02-24T12:31:43.020Z,4.83
2023-02-24T12:34:16.341Z,5.07
2023-02-24T12:37:08.396Z,4.20
2023-02-24T12:39:44.754Z,5.10
2023-02-24T12:42:23.409Z,4.57
2023-02-24T12:44:57.861Z,4.67
2023-02-24T12:51:14.463Z,5.00
2023-02-24T12:53:47.650Z,5.47
2023-02-24T13:00:10.344Z,4.87
2023-02-24T13:02:48.528Z,5.60
2023-02-24T13:05:23.397Z,5.17
2023-02-24T13:08:09.869Z,5.60
2023-02-24T13:14:25.383Z,5.47
2023-02-24T13:17:17.475Z,5.57
2023-02-24T13:19:46.279Z,6.17
2023-02-24T13:22:28.427Z,5.90
2023-02-24T13:25:01.613Z,5.37
2023-02-24T13:27:33.110Z,5.23
2023-02-24T13:30:05.600Z,5.60
2023-02-24T13:36:23.769Z,5.77
2023-02-24T13:38:53.765Z,6.23
2023-02-24T13:45:21.283Z,6.03
2023-02-24T13:52:00.336Z,6.53
2023-02-24T13:54:55.441Z,6.00
2023-02-24T13:57:46.187Z,6.13
2023-02-24T14:04:16.386Z,5.90
2023-02-24T14:07:04.694Z,5.70
2023-02-24T14:09:36.410Z,6.83
2023-02-24T14:13:01.806Z,6.50
2023-02-24T14:15:30.144Z,6.60
2023-02-24T14:18:02.655Z,7.17
2023-02-24T14:20:34.570Z,7.40
2023-02-24T14:23:04.017Z,7.53
2023-02-24T14:25:39.679Z,7.77
2023-02-24T14:28:07.848Z,7.70
2023-02-24T14:30:38.238Z,9.27
2023-02-24T14:33:08.273Z,9.37
2023-02-24T14:35:40.637Z,10.10
2023-02-24T14:38:27.795Z,10.13
2023-02-24T14:40:55.979Z,10.07
2023-02-24T14:43:24.088Z,10.40
2023-02-24T14:45:54.156Z,9.10
2023-02-24T14:48:26.428Z,10.03
2023-02-24T14:51:00.533Z,9.63
2023-02-24T14:53:30.412Z,9.63
2023-02-24T14:55:59.581Z,8.70
2023-02-24T14:58:32.736Z,8.80
2023-02-24T15:01:04.522Z,10.33
2023-02-24T15:03:36.825Z,10.30
2023-02-24T15:06:23.877Z,9.13
2023-02-24T15:08:59.434Z,8.40
2023-02-24T15:11:29.683Z,9.97
2023-02-24T15:14:01.280Z,9.83
2023-02-24T15:16:34.233Z,8.80
2023-02-24T15:19:02.567Z,9.10
2023-02-24T15:21:33.957Z,9.50
2023-02-24T15:24:03.607Z,9.80
2023-02-24T15:26:34.284Z,10.17
2023-02-24T15:29:03.928Z,10.67
2023-02-24T15:31:32.411Z,10.53
2023-02-24T15:34:02.314Z,10.33
2023-02-24T15:36:35.276Z,9.47
2023-02-24T15:39:06.806Z,8.50
2023-02-24T15:41:43.513Z,10.03
2023-02-24T15:47:54.931Z,9.30
2023-02-24T15:54:08.669Z,9.47
2023-02-24T15:56:37.244Z,10.77
2023-02-24T15:59:06.067Z,10.00
2023-02-24T16:01:35.006Z,10.03
2023-02-24T16:04:04.700Z,10.13
2023-02-24T16:06:33.963Z,10.47
2023-02-24T16:09:05.390Z,9.57
2023-02-24T16:11:40.808Z,9.23
2023-02-24T16:14:14.226Z,10.03
2023-02-24T16:20:27.529Z,9.60
2023-02-24T16:22:59.595Z,9.73
2023-02-24T16:29:16.954Z,9.03
2023-02-24T16:31:45.463Z,9.00
2023-02-24T16:34:16.353Z,9.67
2023-02-24T16:40:37.571Z,7.93
2023-02-24T16:46:54.264Z,4.90
2023-02-24T16:53:12.885Z,4.50
2023-02-24T16:55:41.369Z,3.73
2023-02-24T16:58:09.439Z,3.53
2023-02-24T17:04:25.966Z,3.90
2023-02-24T17:06:54.189Z,3.17
2023-02-24T17:13:03.362Z,3.40
2023-02-24T17:15:31.708Z,3.90
2023-02-24T17:17:59.847Z,3.83
2023-02-24T17:20:29.487Z,3.53
2023-02-24T17:22:57.550Z,3.37
2023-02-24T17:25:27.752Z,4.07
2023-02-24T17:27:58.394Z,3.50
2023-02-24T17:30:29.032Z,4.00
2023-02-24T17:32:57.660Z,4.23
2023-02-24T17:35:27.020Z,5.13
2023-02-24T17:41:37.417Z,3.77
2023-02-24T17:44:05.486Z,3.77
2023-02-24T17:46:33.585Z,3.53
2023-02-24T17:49:03.339Z,3.53
2023-02-24T17:55:12.638Z,3.80
2023-02-24T18:01:29.404Z,2.90
2023-02-24T18:03:58.314Z,3.10
2023-02-24T18:06:26.726Z,3.23
2023-02-24T18:09:01.313Z,3.30
2023-02-24T18:11:29.486Z,3.03
2023-02-24T18:14:00.962Z,3.03
2023-02-24T18:16:31.217Z,3.07
2023-02-24T18:26:40.687Z,3.70
2023-02-24T18:29:08.777Z,3.70
2023-02-24T18:35:25.117Z,5.03
2023-02-24T18:37:56.640Z,4.70
2023-02-24T18:40:25.422Z,4.40
2023-02-24T18:46:41.269Z,5.30
2023-02-24T18:52:58.208Z,5.63
2023-02-24T18:55:26.306Z,4.80
2023-02-24T18:57:54.373Z,5.47
2023-02-24T19:00:22.968Z,5.03
2023-02-24T19:02:51.295Z,6.17
2023-02-24T19:05:20.464Z,4.50
2023-02-24T19:07:48.656Z,5.90
2023-02-24T19:10:19.024Z,5.77
2023-02-24T19:12:50.608Z,5.27
2023-02-24T19:15:19.454Z,4.90
2023-02-24T19:17:47.711Z,5.20
2023-02-24T19:20:16.287Z,5.67
2023-02-24T19:22:45.078Z,5.80
2023-02-24T19:25:13.278Z,4.50
2023-02-24T19:27:43.017Z,5.20
2023-02-24T19:34:00.866Z,4.73
2023-02-24T19:36:29.425Z,4.07
2023-02-24T19:38:57.732Z,3.80
2023-02-24T19:45:15.423Z,3.50
2023-02-24T19:51:32.094Z,4.10
2023-02-24T19:57:47.807Z,3.47
2023-02-24T20:00:20.944Z,3.77
2023-02-24T20:02:49.200Z,3.63
2023-02-24T20:05:17.323Z,3.33
2023-02-24T20:07:45.508Z,3.20
2023-02-24T20:10:14.002Z,3.37
2023-02-24T20:12:42.193Z,2.80
2023-02-24T20:15:11.430Z,2.87
2023-02-24T20:17:41.482Z,3.07
2023-02-24T20:20:13.045Z,3.00
2023-02-24T20:22:41.278Z,2.90
2023-02-24T20:25:10.236Z,3.00
2023-02-24T20:27:38.330Z,2.70
2023-02-24T20:33:50.360Z,3.20
2023-02-24T20:39:59.594Z,3.77
2023-02-24T20:42:27.714Z,3.30
2023-02-24T20:44:55.789Z,3.10
2023-02-24T20:47:24.224Z,3.67
2023-02-24T20:49:53.740Z,3.47
2023-02-24T20:52:21.892Z,3.33
2023-02-24T20:54:50.673Z,3.40
2023-02-24T20:57:18.817Z,3.30
2023-02-24T21:00:01.515Z,3.27
2023-02-24T21:02:31.369Z,3.17
2023-02-24T21:05:00.945Z,3.17
2023-02-24T21:07:29.180Z,3.00
2023-02-24T21:09:57.578Z,3.30
2023-02-24T21:12:25.730Z,3.47
2023-02-24T21:14:53.932Z,3.40
2023-02-24T21:17:22.393Z,2.90
2023-02-24T21:19:50.845Z,2.70
2023-02-24T21:22:20.311Z,2.77
2023-02-24T21:24:50.510Z,2.60
2023-02-24T21:27:18.661Z,3.33
2023-02-24T21:29:46.767Z,3.13
2023-02-24T21:32:15.348Z,3.37
2023-02-24T21:34:43.857Z,3.23
2023-02-24T21:37:11.940Z,3.17
2023-02-24T21:39:41.653Z,3.13
2023-02-24T21:42:12.142Z,3.10
2023-02-24T21:44:44.185Z,3.57
2023-02-24T21:47:12.848Z,3.37
2023-02-24T21:49:40.967Z,4.13
2023-02-24T21:52:11.477Z,4.00
2023-02-24T21:54:42.418Z,4.37
2023-02-24T21:57:10.478Z,4.37
2023-02-24T21:59:40.736Z,4.43
2023-02-24T22:02:11.751Z,4.20
2023-02-24T22:04:39.939Z,4.93
2023-02-24T22:07:08.030Z,4.87
2023-02-24T22:09:36.169Z,5.07
2023-02-24T22:12:06.587Z,4.67
2023-02-24T22:14:35.906Z,5.43
2023-02-24T22:17:04.180Z,5.60
2023-02-24T22:19:32.264Z,5.17
2023-02-24T22:22:00.766Z,5.20
2023-02-24T22:24:28.927Z,5.13
2023-02-24T22:26:56.993Z,4.90
2023-02-24T22:29:26.592Z,5.40
2023-02-24T22:31:54.823Z,4.77
2023-02-24T22:34:22.937Z,4.73
2023-02-24T22:36:52.359Z,4.90
2023-02-24T22:39:20.551Z,5.33
2023-02-24T22:41:52.570Z,4.77
2023-02-24T22:44:21.140Z,4.70
2023-02-24T22:46:50.715Z,4.80
2023-02-24T22:49:18.848Z,4.87
2023-02-24T22:51:47.136Z,4.70
2023-02-24T22:54:15.376Z,4.73
2023-02-24T22:56:43.471Z,5.20
2023-02-24T22:59:12.157Z,4.90
2023-02-24T23:01:42.631Z,5.20
2023-02-24T23:04:15.400Z,4.70
2023-02-24T23:06:44.522Z,4.80
2023-02-24T23:09:13.260Z,4.60
2023-02-24T23:11:42.888Z,4.93
2023-02-24T23:14:13.966Z,3.97
2023-02-24T23:16:44.478Z,4.67
2023-02-24T23:19:17.524Z,4.47
2023-02-24T23:21:47.928Z,4.80
2023-02-24T23:24:16.948Z,3.80
2023-02-24T23:26:47.779Z,5.17
2023-02-24T23:29:18.359Z,4.30
2023-02-24T23:31:47.754Z,4.50
2023-02-24T23:34:17.395Z,5.37
2023-02-24T23:36:47.214Z,5.23
2023-02-24T23:39:17.256Z,5.90
2023-02-24T23:41:45.474Z,5.63
2023-02-24T23:44:14.270Z,5.47
2023-02-24T23:46:42.898Z,5.63
2023-02-24T23:49:11.210Z,4.87
2023-02-24T23:51:48.451Z,5.13
2023-02-24T23:58:05.759Z,4.80
